sensor_id;sensor_type;location;lat;lon;timestamp;P1;durP1;ratioP1;P2;durP2;ratioP2
41711;SDS011;27399;51.516;13.670;2023-04-24T00:02:21;19.73;;;3.20;;
41711;SDS011;27399;51.516;13.670;2023-04-24T00:04:47;12.35;;;3.80;;
41711;SDS011;27399;51.516;13.670;2023-04-24T00:07:14;12.57;;;2.92;;
41711;SDS011;27399;51.516;13.670;2023-04-24T00:09:41;9.40;;;3.53;;
41711;SDS011;27399;51.516;13.670;2023-04-24T00:12:08;10.45;;;3.58;;
41711;SDS011;27399;51.516;13.670;2023-04-24T00:14:35;10.75;;;3.30;;
41711;SDS011;27399;51.516;13.670;2023-04-24T00:17:01;19.05;;;3.85;;
41711;SDS011;27399;51.516;13.670;2023-04-24T00:19:27;6.50;;;3.22;;
41711;SDS011;27399;51.516;13.670;2023-04-24T00:21:53;5.10;;;3.38;;
41711;SDS011;27399;51.516;13.670;2023-04-24T00:24:20;8.40;;;3.45;;
41711;SDS011;27399;51.516;13.670;2023-04-24T00:26:46;9.65;;;3.30;;
41711;SDS011;27399;51.516;13.670;2023-04-24T00:29:11;33.95;;;4.10;;
41711;SDS011;27399;51.516;13.670;2023-04-24T00:31:37;4.72;;;3.25;;
41711;SDS011;27399;51.516;13.670;2023-04-24T00:34:03;6.78;;;3.97;;
41711;SDS011;27399;51.516;13.670;2023-04-24T00:36:29;9.77;;;3.70;;
41711;SDS011;27399;51.516;13.670;2023-04-24T00:38:56;7.40;;;3.72;;
41711;SDS011;27399;51.516;13.670;2023-04-24T00:41:22;8.10;;;4.05;;
41711;SDS011;27399;51.516;13.670;2023-04-24T00:43:50;8.25;;;4.10;;
41711;SDS011;27399;51.516;13.670;2023-04-24T00:46:17;8.75;;;4.15;;
41711;SDS011;27399;51.516;13.670;2023-04-24T00:48:43;8.60;;;3.90;;
41711;SDS011;27399;51.516;13.670;2023-04-24T00:51:09;10.07;;;4.03;;
41711;SDS011;27399;51.516;13.670;2023-04-24T00:53:35;6.00;;;3.80;;
41711;SDS011;27399;51.516;13.670;2023-04-24T00:56:01;6.72;;;4.07;;
41711;SDS011;27399;51.516;13.670;2023-04-24T00:58:27;7.70;;;4.68;;
41711;SDS011;27399;51.516;13.670;2023-04-24T01:00:53;10.45;;;3.63;;
41711;SDS011;27399;51.516;13.670;2023-04-24T01:03:24;5.88;;;4.13;;
41711;SDS011;27399;51.516;13.670;2023-04-24T01:05:56;11.18;;;3.78;;
41711;SDS011;27399;51.516;13.670;2023-04-24T01:08:23;8.75;;;3.80;;
41711;SDS011;27399;51.516;13.670;2023-04-24T01:10:52;13.60;;;3.85;;
41711;SDS011;27399;51.516;13.670;2023-04-24T01:13:19;9.20;;;4.10;;
41711;SDS011;27399;51.516;13.670;2023-04-24T01:15:45;6.97;;;3.65;;
41711;SDS011;27399;51.516;13.670;2023-04-24T01:18:11;9.80;;;4.20;;
41711;SDS011;27399;51.516;13.670;2023-04-24T01:20:39;7.20;;;3.95;;
41711;SDS011;27399;51.516;13.670;2023-04-24T01:23:06;6.93;;;3.85;;
41711;SDS011;27399;51.516;13.670;2023-04-24T01:25:32;10.52;;;4.45;;
41711;SDS011;27399;51.516;13.670;2023-04-24T01:27:58;12.60;;;5.20;;
41711;SDS011;27399;51.516;13.670;2023-04-24T01:30:25;8.85;;;4.88;;
41711;SDS011;27399;51.516;13.670;2023-04-24T01:32:52;12.30;;;5.07;;
41711;SDS011;27399;51.516;13.670;2023-04-24T01:35:18;9.48;;;3.83;;
41711;SDS011;27399;51.516;13.670;2023-04-24T01:37:45;9.02;;;4.28;;
41711;SDS011;27399;51.516;13.670;2023-04-24T01:40:11;9.15;;;4.28;;
41711;SDS011;27399;51.516;13.670;2023-04-24T01:42:36;7.93;;;5.20;;
41711;SDS011;27399;51.516;13.670;2023-04-24T01:45:03;13.88;;;4.20;;
41711;SDS011;27399;51.516;13.670;2023-04-24T01:47:30;8.32;;;4.20;;
41711;SDS011;27399;51.516;13.670;2023-04-24T01:49:57;12.77;;;4.00;;
41711;SDS011;27399;51.516;13.670;2023-04-24T01:52:23;18.83;;;4.65;;
41711;SDS011;27399;51.516;13.670;2023-04-24T01:54:49;18.25;;;4.70;;
41711;SDS011;27399;51.516;13.670;2023-04-24T01:57:15;10.90;;;4.10;;
41711;SDS011;27399;51.516;13.670;2023-04-24T01:59:41;12.13;;;3.88;;
41711;SDS011;27399;51.516;13.670;2023-04-24T02:02:07;9.32;;;4.13;;
41711;SDS011;27399;51.516;13.670;2023-04-24T02:04:33;6.97;;;3.60;;
41711;SDS011;27399;51.516;13.670;2023-04-24T02:06:58;8.13;;;4.10;;
41711;SDS011;27399;51.516;13.670;2023-04-24T02:09:24;13.07;;;4.70;;
41711;SDS011;27399;51.516;13.670;2023-04-24T02:11:50;17.58;;;5.10;;
41711;SDS011;27399;51.516;13.670;2023-04-24T02:14:15;21.70;;;5.25;;
41711;SDS011;27399;51.516;13.670;2023-04-24T02:16:41;6.32;;;4.30;;
41711;SDS011;27399;51.516;13.670;2023-04-24T02:19:07;11.00;;;5.25;;
41711;SDS011;27399;51.516;13.670;2023-04-24T02:21:33;9.23;;;5.20;;
41711;SDS011;27399;51.516;13.670;2023-04-24T02:23:58;7.53;;;4.35;;
41711;SDS011;27399;51.516;13.670;2023-04-24T02:26:24;13.45;;;4.85;;
41711;SDS011;27399;51.516;13.670;2023-04-24T02:28:50;10.02;;;4.13;;
41711;SDS011;27399;51.516;13.670;2023-04-24T02:31:16;11.85;;;5.05;;
41711;SDS011;27399;51.516;13.670;2023-04-24T02:33:41;5.32;;;3.70;;
41711;SDS011;27399;51.516;13.670;2023-04-24T02:36:07;8.27;;;4.20;;
41711;SDS011;27399;51.516;13.670;2023-04-24T02:38:32;7.32;;;4.68;;
41711;SDS011;27399;51.516;13.670;2023-04-24T02:40:58;11.90;;;4.47;;
41711;SDS011;27399;51.516;13.670;2023-04-24T02:43:25;20.70;;;5.05;;
41711;SDS011;27399;51.516;13.670;2023-04-24T02:45:51;13.80;;;5.05;;
41711;SDS011;27399;51.516;13.670;2023-04-24T02:48:16;13.30;;;4.78;;
41711;SDS011;27399;51.516;13.670;2023-04-24T02:50:42;19.00;;;5.28;;
41711;SDS011;27399;51.516;13.670;2023-04-24T02:53:08;12.20;;;4.70;;
41711;SDS011;27399;51.516;13.670;2023-04-24T02:55:33;13.10;;;4.47;;
41711;SDS011;27399;51.516;13.670;2023-04-24T02:57:59;16.95;;;5.97;;
41711;SDS011;27399;51.516;13.670;2023-04-24T03:00:25;13.68;;;4.47;;
41711;SDS011;27399;51.516;13.670;2023-04-24T03:02:50;18.02;;;5.40;;
41711;SDS011;27399;51.516;13.670;2023-04-24T03:05:16;11.18;;;4.53;;
41711;SDS011;27399;51.516;13.670;2023-04-24T03:07:42;10.40;;;4.53;;
41711;SDS011;27399;51.516;13.670;2023-04-24T03:10:07;12.57;;;4.90;;
41711;SDS011;27399;51.516;13.670;2023-04-24T03:12:33;9.68;;;4.47;;
41711;SDS011;27399;51.516;13.670;2023-04-24T03:14:59;12.88;;;5.22;;
41711;SDS011;27399;51.516;13.670;2023-04-24T03:17:24;13.75;;;4.63;;
41711;SDS011;27399;51.516;13.670;2023-04-24T03:19:50;18.10;;;5.60;;
41711;SDS011;27399;51.516;13.670;2023-04-24T03:22:16;13.77;;;5.90;;
41711;SDS011;27399;51.516;13.670;2023-04-24T03:24:42;15.93;;;5.28;;
41711;SDS011;27399;51.516;13.670;2023-04-24T03:27:07;9.75;;;6.07;;
41711;SDS011;27399;51.516;13.670;2023-04-24T03:29:33;9.95;;;5.00;;
41711;SDS011;27399;51.516;13.670;2023-04-24T03:31:58;6.63;;;4.38;;
41711;SDS011;27399;51.516;13.670;2023-04-24T03:34:24;7.32;;;5.07;;
41711;SDS011;27399;51.516;13.670;2023-04-24T03:36:50;6.95;;;4.47;;
41711;SDS011;27399;51.516;13.670;2023-04-24T03:39:15;9.88;;;4.88;;
41711;SDS011;27399;51.516;13.670;2023-04-24T03:41:41;13.13;;;5.05;;
41711;SDS011;27399;51.516;13.670;2023-04-24T03:44:07;12.70;;;4.85;;
41711;SDS011;27399;51.516;13.670;2023-04-24T03:46:32;5.55;;;4.10;;
41711;SDS011;27399;51.516;13.670;2023-04-24T03:48:58;13.52;;;5.43;;
41711;SDS011;27399;51.516;13.670;2023-04-24T03:51:23;9.88;;;5.70;;
41711;SDS011;27399;51.516;13.670;2023-04-24T03:53:49;9.02;;;5.80;;
41711;SDS011;27399;51.516;13.670;2023-04-24T03:56:15;11.43;;;6.18;;
41711;SDS011;27399;51.516;13.670;2023-04-24T03:58:40;6.50;;;3.90;;
41711;SDS011;27399;51.516;13.670;2023-04-24T04:01:06;19.83;;;6.78;;
41711;SDS011;27399;51.516;13.670;2023-04-24T04:03:32;13.60;;;4.85;;
41711;SDS011;27399;51.516;13.670;2023-04-24T04:05:58;9.07;;;4.25;;
41711;SDS011;27399;51.516;13.670;2023-04-24T04:08:23;4.88;;;2.92;;
41711;SDS011;27399;51.516;13.670;2023-04-24T04:10:49;3.92;;;3.20;;
41711;SDS011;27399;51.516;13.670;2023-04-24T04:13:15;4.15;;;2.28;;
41711;SDS011;27399;51.516;13.670;2023-04-24T04:15:40;2.92;;;2.00;;
41711;SDS011;27399;51.516;13.670;2023-04-24T04:18:06;4.03;;;1.95;;
41711;SDS011;27399;51.516;13.670;2023-04-24T04:20:31;2.85;;;2.08;;
41711;SDS011;27399;51.516;13.670;2023-04-24T04:22:57;2.42;;;1.90;;
41711;SDS011;27399;51.516;13.670;2023-04-24T04:25:23;2.63;;;1.63;;
41711;SDS011;27399;51.516;13.670;2023-04-24T04:27:48;3.90;;;2.30;;
41711;SDS011;27399;51.516;13.670;2023-04-24T04:30:14;2.58;;;1.73;;
41711;SDS011;27399;51.516;13.670;2023-04-24T04:32:40;3.63;;;1.92;;
41711;SDS011;27399;51.516;13.670;2023-04-24T04:35:06;3.50;;;1.67;;
41711;SDS011;27399;51.516;13.670;2023-04-24T04:37:32;2.97;;;1.45;;
41711;SDS011;27399;51.516;13.670;2023-04-24T04:39:58;2.17;;;1.50;;
41711;SDS011;27399;51.516;13.670;2023-04-24T04:42:25;4.43;;;1.60;;
41711;SDS011;27399;51.516;13.670;2023-04-24T04:44:52;4.68;;;1.30;;
41711;SDS011;27399;51.516;13.670;2023-04-24T04:47:18;2.90;;;1.35;;
41711;SDS011;27399;51.516;13.670;2023-04-24T04:49:49;4.40;;;1.50;;
41711;SDS011;27399;51.516;13.670;2023-04-24T04:52:18;2.22;;;1.33;;
41711;SDS011;27399;51.516;13.670;2023-04-24T04:54:44;3.10;;;1.50;;
41711;SDS011;27399;51.516;13.670;2023-04-24T04:57:11;1.98;;;1.45;;
41711;SDS011;27399;51.516;13.670;2023-04-24T04:59:37;2.75;;;1.40;;
41711;SDS011;27399;51.516;13.670;2023-04-24T05:02:03;5.25;;;1.65;;
41711;SDS011;27399;51.516;13.670;2023-04-24T05:04:29;1.70;;;1.45;;
41711;SDS011;27399;51.516;13.670;2023-04-24T05:06:55;1.85;;;1.30;;
41711;SDS011;27399;51.516;13.670;2023-04-24T05:09:21;1.98;;;1.42;;
41711;SDS011;27399;51.516;13.670;2023-04-24T05:11:47;3.55;;;1.33;;
41711;SDS011;27399;51.516;13.670;2023-04-24T05:14:12;2.25;;;1.35;;
41711;SDS011;27399;51.516;13.670;2023-04-24T05:16:38;2.17;;;1.20;;
41711;SDS011;27399;51.516;13.670;2023-04-24T05:19:05;2.45;;;1.33;;
41711;SDS011;27399;51.516;13.670;2023-04-24T05:21:31;3.13;;;1.33;;
41711;SDS011;27399;51.516;13.670;2023-04-24T05:23:57;1.40;;;1.10;;
41711;SDS011;27399;51.516;13.670;2023-04-24T05:26:22;1.80;;;1.10;;
41711;SDS011;27399;51.516;13.670;2023-04-24T05:28:48;2.15;;;1.35;;
41711;SDS011;27399;51.516;13.670;2023-04-24T05:31:14;2.67;;;1.20;;
41711;SDS011;27399;51.516;13.670;2023-04-24T05:33:40;4.38;;;1.30;;
41711;SDS011;27399;51.516;13.670;2023-04-24T05:36:06;3.72;;;1.20;;
41711;SDS011;27399;51.516;13.670;2023-04-24T05:38:32;1.90;;;1.10;;
41711;SDS011;27399;51.516;13.670;2023-04-24T05:40:57;3.42;;;1.15;;
41711;SDS011;27399;51.516;13.670;2023-04-24T05:43:23;4.32;;;1.70;;
41711;SDS011;27399;51.516;13.670;2023-04-24T05:45:48;1.40;;;1.10;;
41711;SDS011;27399;51.516;13.670;2023-04-24T05:48:14;3.35;;;1.60;;
41711;SDS011;27399;51.516;13.670;2023-04-24T05:50:40;4.50;;;1.25;;
41711;SDS011;27399;51.516;13.670;2023-04-24T05:53:06;3.83;;;1.20;;
41711;SDS011;27399;51.516;13.670;2023-04-24T05:55:32;3.28;;;1.13;;
41711;SDS011;27399;51.516;13.670;2023-04-24T05:57:58;1.60;;;1.13;;
41711;SDS011;27399;51.516;13.670;2023-04-24T06:00:24;5.55;;;1.33;;
41711;SDS011;27399;51.516;13.670;2023-04-24T06:02:50;2.17;;;1.10;;
41711;SDS011;27399;51.516;13.670;2023-04-24T06:05:17;2.25;;;0.90;;
41711;SDS011;27399;51.516;13.670;2023-04-24T06:07:43;2.15;;;1.50;;
41711;SDS011;27399;51.516;13.670;2023-04-24T06:10:09;1.95;;;1.08;;
41711;SDS011;27399;51.516;13.670;2023-04-24T06:12:35;3.55;;;1.10;;
41711;SDS011;27399;51.516;13.670;2023-04-24T06:15:01;3.20;;;1.30;;
41711;SDS011;27399;51.516;13.670;2023-04-24T06:17:27;4.35;;;1.05;;
41711;SDS011;27399;51.516;13.670;2023-04-24T06:19:53;1.77;;;1.20;;
41711;SDS011;27399;51.516;13.670;2023-04-24T06:22:19;3.47;;;1.10;;
41711;SDS011;27399;51.516;13.670;2023-04-24T06:24:44;2.72;;;1.10;;
41711;SDS011;27399;51.516;13.670;2023-04-24T06:27:10;2.25;;;1.15;;
41711;SDS011;27399;51.516;13.670;2023-04-24T06:29:35;6.28;;;1.42;;
41711;SDS011;27399;51.516;13.670;2023-04-24T06:32:01;1.63;;;1.20;;
41711;SDS011;27399;51.516;13.670;2023-04-24T06:34:27;1.45;;;1.05;;
41711;SDS011;27399;51.516;13.670;2023-04-24T06:36:53;1.90;;;0.93;;
41711;SDS011;27399;51.516;13.670;2023-04-24T06:39:20;2.75;;;1.10;;
41711;SDS011;27399;51.516;13.670;2023-04-24T06:41:45;1.73;;;1.00;;
41711;SDS011;27399;51.516;13.670;2023-04-24T06:44:11;1.58;;;0.90;;
41711;SDS011;27399;51.516;13.670;2023-04-24T06:46:36;2.25;;;1.50;;
41711;SDS011;27399;51.516;13.670;2023-04-24T06:49:02;2.80;;;1.00;;
41711;SDS011;27399;51.516;13.670;2023-04-24T06:51:28;4.57;;;0.95;;
41711;SDS011;27399;51.516;13.670;2023-04-24T06:53:54;6.18;;;1.27;;
41711;SDS011;27399;51.516;13.670;2023-04-24T06:56:21;3.30;;;1.73;;
41711;SDS011;27399;51.516;13.670;2023-04-24T06:58:47;4.72;;;1.00;;
41711;SDS011;27399;51.516;13.670;2023-04-24T07:01:13;2.85;;;0.93;;
41711;SDS011;27399;51.516;13.670;2023-04-24T07:03:38;3.47;;;0.95;;
41711;SDS011;27399;51.516;13.670;2023-04-24T07:06:04;1.88;;;1.00;;
41711;SDS011;27399;51.516;13.670;2023-04-24T07:08:30;1.80;;;0.93;;
41711;SDS011;27399;51.516;13.670;2023-04-24T07:10:56;2.20;;;0.90;;
41711;SDS011;27399;51.516;13.670;2023-04-24T07:13:22;2.47;;;1.40;;
41711;SDS011;27399;51.516;13.670;2023-04-24T07:15:48;2.13;;;1.00;;
41711;SDS011;27399;51.516;13.670;2023-04-24T07:18:16;3.35;;;0.93;;
41711;SDS011;27399;51.516;13.670;2023-04-24T07:20:42;2.72;;;0.95;;
41711;SDS011;27399;51.516;13.670;2023-04-24T07:23:07;3.53;;;0.93;;
41711;SDS011;27399;51.516;13.670;2023-04-24T07:25:33;1.83;;;1.10;;
41711;SDS011;27399;51.516;13.670;2023-04-24T07:27:59;3.70;;;1.08;;
41711;SDS011;27399;51.516;13.670;2023-04-24T07:30:24;4.90;;;1.10;;
41711;SDS011;27399;51.516;13.670;2023-04-24T07:32:52;3.85;;;0.90;;
41711;SDS011;27399;51.516;13.670;2023-04-24T07:35:17;2.20;;;1.00;;
41711;SDS011;27399;51.516;13.670;2023-04-24T07:37:43;0.95;;;0.77;;
41711;SDS011;27399;51.516;13.670;2023-04-24T07:40:13;2.55;;;0.88;;
41711;SDS011;27399;51.516;13.670;2023-04-24T07:42:39;3.13;;;0.98;;
41711;SDS011;27399;51.516;13.670;2023-04-24T07:45:05;3.95;;;1.00;;
41711;SDS011;27399;51.516;13.670;2023-04-24T07:47:31;2.00;;;0.88;;
41711;SDS011;27399;51.516;13.670;2023-04-24T07:49:58;2.15;;;0.70;;
41711;SDS011;27399;51.516;13.670;2023-04-24T07:52:24;1.65;;;0.98;;
41711;SDS011;27399;51.516;13.670;2023-04-24T07:54:50;1.10;;;0.75;;
41711;SDS011;27399;51.516;13.670;2023-04-24T07:57:17;4.15;;;0.68;;
41711;SDS011;27399;51.516;13.670;2023-04-24T07:59:43;1.10;;;0.60;;
41711;SDS011;27399;51.516;13.670;2023-04-24T08:02:09;2.67;;;0.68;;
41711;SDS011;27399;51.516;13.670;2023-04-24T08:04:35;3.80;;;0.60;;
41711;SDS011;27399;51.516;13.670;2023-04-24T08:07:00;3.60;;;0.60;;
41711;SDS011;27399;51.516;13.670;2023-04-24T08:09:26;2.70;;;0.70;;
41711;SDS011;27399;51.516;13.670;2023-04-24T08:11:51;3.58;;;0.90;;
41711;SDS011;27399;51.516;13.670;2023-04-24T08:14:18;2.90;;;0.60;;
41711;SDS011;27399;51.516;13.670;2023-04-24T08:16:43;4.57;;;0.73;;
41711;SDS011;27399;51.516;13.670;2023-04-24T08:19:09;11.32;;;1.08;;
41711;SDS011;27399;51.516;13.670;2023-04-24T08:21:35;5.55;;;1.30;;
41711;SDS011;27399;51.516;13.670;2023-04-24T08:24:01;1.50;;;0.80;;
41711;SDS011;27399;51.516;13.670;2023-04-24T08:26:30;4.65;;;1.00;;
41711;SDS011;27399;51.516;13.670;2023-04-24T08:28:56;1.70;;;0.70;;
41711;SDS011;27399;51.516;13.670;2023-04-24T08:31:22;2.25;;;0.60;;
41711;SDS011;27399;51.516;13.670;2023-04-24T08:33:49;1.83;;;0.63;;
41711;SDS011;27399;51.516;13.670;2023-04-24T08:36:15;1.63;;;0.77;;
41711;SDS011;27399;51.516;13.670;2023-04-24T08:38:41;2.00;;;0.65;;
41711;SDS011;27399;51.516;13.670;2023-04-24T08:41:07;4.82;;;1.02;;
41711;SDS011;27399;51.516;13.670;2023-04-24T08:43:35;3.65;;;0.73;;
41711;SDS011;27399;51.516;13.670;2023-04-24T08:46:03;2.20;;;0.90;;
41711;SDS011;27399;51.516;13.670;2023-04-24T08:48:29;4.65;;;1.15;;
41711;SDS011;27399;51.516;13.670;2023-04-24T08:50:56;2.17;;;0.60;;
41711;SDS011;27399;51.516;13.670;2023-04-24T08:53:22;3.03;;;0.68;;
41711;SDS011;27399;51.516;13.670;2023-04-24T08:55:50;3.92;;;0.88;;
41711;SDS011;27399;51.516;13.670;2023-04-24T08:58:16;1.13;;;0.50;;
41711;SDS011;27399;51.516;13.670;2023-04-24T09:00:43;4.05;;;0.80;;
41711;SDS011;27399;51.516;13.670;2023-04-24T09:03:13;4.30;;;0.95;;
41711;SDS011;27399;51.516;13.670;2023-04-24T09:05:41;1.50;;;0.70;;
41711;SDS011;27399;51.516;13.670;2023-04-24T09:08:12;3.80;;;0.73;;
41711;SDS011;27399;51.516;13.670;2023-04-24T09:10:40;1.67;;;0.60;;
41711;SDS011;27399;51.516;13.670;2023-04-24T09:13:06;2.13;;;0.93;;
41711;SDS011;27399;51.516;13.670;2023-04-24T09:15:34;4.15;;;0.88;;
41711;SDS011;27399;51.516;13.670;2023-04-24T09:18:00;1.60;;;0.77;;
41711;SDS011;27399;51.516;13.670;2023-04-24T09:20:26;1.52;;;0.73;;
41711;SDS011;27399;51.516;13.670;2023-04-24T09:22:56;1.42;;;0.85;;
41711;SDS011;27399;51.516;13.670;2023-04-24T09:25:23;3.95;;;0.80;;
41711;SDS011;27399;51.516;13.670;2023-04-24T09:27:59;2.35;;;0.57;;
41711;SDS011;27399;51.516;13.670;2023-04-24T09:30:26;3.60;;;0.70;;
41711;SDS011;27399;51.516;13.670;2023-04-24T09:33:09;0.73;;;0.45;;
41711;SDS011;27399;51.516;13.670;2023-04-24T09:35:50;3.28;;;0.88;;
41711;SDS011;27399;51.516;13.670;2023-04-24T09:38:17;1.45;;;0.80;;
41711;SDS011;27399;51.516;13.670;2023-04-24T09:40:43;1.80;;;0.80;;
41711;SDS011;27399;51.516;13.670;2023-04-24T09:43:11;3.38;;;0.70;;
41711;SDS011;27399;51.516;13.670;2023-04-24T09:45:38;2.15;;;0.80;;
41711;SDS011;27399;51.516;13.670;2023-04-24T09:48:04;1.55;;;0.60;;
41711;SDS011;27399;51.516;13.670;2023-04-24T09:50:31;2.35;;;0.70;;
41711;SDS011;27399;51.516;13.670;2023-04-24T09:52:58;0.98;;;0.57;;
41711;SDS011;27399;51.516;13.670;2023-04-24T09:55:26;1.73;;;0.55;;
41711;SDS011;27399;51.516;13.670;2023-04-24T09:57:59;0.88;;;0.70;;
41711;SDS011;27399;51.516;13.670;2023-04-24T10:00:27;2.13;;;0.60;;
41711;SDS011;27399;51.516;13.670;2023-04-24T10:02:57;2.92;;;1.15;;
41711;SDS011;27399;51.516;13.670;2023-04-24T10:05:25;4.03;;;1.00;;
41711;SDS011;27399;51.516;13.670;2023-04-24T10:07:57;4.43;;;0.60;;
41711;SDS011;27399;51.516;13.670;2023-04-24T10:10:33;2.58;;;0.80;;
41711;SDS011;27399;51.516;13.670;2023-04-24T10:13:07;2.50;;;0.60;;
41711;SDS011;27399;51.516;13.670;2023-04-24T10:15:38;2.58;;;0.80;;
41711;SDS011;27399;51.516;13.670;2023-04-24T10:18:05;0.75;;;0.57;;
41711;SDS011;27399;51.516;13.670;2023-04-24T10:20:34;1.55;;;0.60;;
41711;SDS011;27399;51.516;13.670;2023-04-24T10:23:01;0.98;;;0.52;;
41711;SDS011;27399;51.516;13.670;2023-04-24T10:25:29;1.25;;;0.70;;
41711;SDS011;27399;51.516;13.670;2023-04-24T10:27:55;2.78;;;0.70;;
41711;SDS011;27399;51.516;13.670;2023-04-24T10:30:29;2.05;;;0.70;;
41711;SDS011;27399;51.516;13.670;2023-04-24T10:33:04;2.03;;;1.00;;
41711;SDS011;27399;51.516;13.670;2023-04-24T10:35:37;2.25;;;0.75;;
41711;SDS011;27399;51.516;13.670;2023-04-24T10:38:07;3.00;;;0.70;;
41711;SDS011;27399;51.516;13.670;2023-04-24T10:40:36;4.05;;;0.73;;
41711;SDS011;27399;51.516;13.670;2023-04-24T10:43:03;2.83;;;0.60;;
41711;SDS011;27399;51.516;13.670;2023-04-24T10:45:34;0.63;;;0.63;;
41711;SDS011;27399;51.516;13.670;2023-04-24T10:48:01;1.38;;;0.60;;
41711;SDS011;27399;51.516;13.670;2023-04-24T10:50:48;4.95;;;0.80;;
41711;SDS011;27399;51.516;13.670;2023-04-24T10:53:17;0.50;;;0.50;;
41711;SDS011;27399;51.516;13.670;2023-04-24T10:58:22;0.98;;;0.63;;
41711;SDS011;27399;51.516;13.670;2023-04-24T11:00:58;0.82;;;0.52;;
41711;SDS011;27399;51.516;13.670;2023-04-24T11:03:28;1.83;;;0.82;;
41711;SDS011;27399;51.516;13.670;2023-04-24T11:08:29;1.75;;;0.63;;
41711;SDS011;27399;51.516;13.670;2023-04-24T11:11:24;2.90;;;0.70;;
41711;SDS011;27399;51.516;13.670;2023-04-24T11:16:30;1.38;;;0.80;;
41711;SDS011;27399;51.516;13.670;2023-04-24T11:19:08;1.33;;;0.60;;
41711;SDS011;27399;51.516;13.670;2023-04-24T11:21:48;1.63;;;0.65;;
41711;SDS011;27399;51.516;13.670;2023-04-24T11:24:24;1.85;;;0.70;;
41711;SDS011;27399;51.516;13.670;2023-04-24T11:27:12;2.47;;;0.75;;
41711;SDS011;27399;51.516;13.670;2023-04-24T11:32:30;1.52;;;0.70;;
41711;SDS011;27399;51.516;13.670;2023-04-24T11:35:01;4.30;;;0.80;;
41711;SDS011;27399;51.516;13.670;2023-04-24T11:37:35;2.17;;;1.30;;
41711;SDS011;27399;51.516;13.670;2023-04-24T11:40:05;2.92;;;1.35;;
41711;SDS011;27399;51.516;13.670;2023-04-24T11:42:34;3.40;;;0.50;;
41711;SDS011;27399;51.516;13.670;2023-04-24T11:45:09;1.00;;;0.50;;
41711;SDS011;27399;51.516;13.670;2023-04-24T11:47:36;1.27;;;0.68;;
41711;SDS011;27399;51.516;13.670;2023-04-24T11:50:02;3.50;;;1.00;;
41711;SDS011;27399;51.516;13.670;2023-04-24T11:52:33;1.55;;;0.63;;
41711;SDS011;27399;51.516;13.670;2023-04-24T11:55:03;4.65;;;0.73;;
41711;SDS011;27399;51.516;13.670;2023-04-24T11:57:29;4.03;;;1.45;;
41711;SDS011;27399;51.516;13.670;2023-04-24T12:00:04;1.60;;;0.85;;
41711;SDS011;27399;51.516;13.670;2023-04-24T12:02:30;1.77;;;0.50;;
41711;SDS011;27399;51.516;13.670;2023-04-24T12:04:56;1.20;;;0.70;;
41711;SDS011;27399;51.516;13.670;2023-04-24T12:07:22;0.95;;;0.50;;
41711;SDS011;27399;51.516;13.670;2023-04-24T12:12:27;1.17;;;0.60;;
41711;SDS011;27399;51.516;13.670;2023-04-24T12:14:54;0.90;;;0.50;;
41711;SDS011;27399;51.516;13.670;2023-04-24T12:17:28;2.20;;;0.52;;
41711;SDS011;27399;51.516;13.670;2023-04-24T12:19:59;1.13;;;0.57;;
41711;SDS011;27399;51.516;13.670;2023-04-24T12:22:27;1.13;;;0.60;;
41711;SDS011;27399;51.516;13.670;2023-04-24T12:25:00;1.52;;;0.80;;
41711;SDS011;27399;51.516;13.670;2023-04-24T12:27:31;2.28;;;0.60;;
41711;SDS011;27399;51.516;13.670;2023-04-24T12:30:01;1.75;;;0.63;;
41711;SDS011;27399;51.516;13.670;2023-04-24T12:32:29;0.50;;;0.50;;
41711;SDS011;27399;51.516;13.670;2023-04-24T12:34:55;2.25;;;0.70;;
41711;SDS011;27399;51.516;13.670;2023-04-24T12:37:24;1.08;;;0.45;;
41711;SDS011;27399;51.516;13.670;2023-04-24T12:40:01;1.10;;;0.60;;
41711;SDS011;27399;51.516;13.670;2023-04-24T12:42:31;1.15;;;0.50;;
41711;SDS011;27399;51.516;13.670;2023-04-24T12:44:57;1.95;;;0.60;;
41711;SDS011;27399;51.516;13.670;2023-04-24T12:47:25;0.50;;;0.50;;
41711;SDS011;27399;51.516;13.670;2023-04-24T12:49:51;4.82;;;0.57;;
41711;SDS011;27399;51.516;13.670;2023-04-24T12:52:18;0.88;;;0.50;;
41711;SDS011;27399;51.516;13.670;2023-04-24T12:54:46;3.40;;;0.70;;
41711;SDS011;27399;51.516;13.670;2023-04-24T12:57:12;3.05;;;0.88;;
41711;SDS011;27399;51.516;13.670;2023-04-24T12:59:37;3.65;;;0.70;;
41711;SDS011;27399;51.516;13.670;2023-04-24T13:02:04;1.92;;;0.70;;
41711;SDS011;27399;51.516;13.670;2023-04-24T13:04:31;3.63;;;0.77;;
41711;SDS011;27399;51.516;13.670;2023-04-24T13:06:57;1.23;;;0.70;;
41711;SDS011;27399;51.516;13.670;2023-04-24T13:09:23;1.27;;;0.70;;
41711;SDS011;27399;51.516;13.670;2023-04-24T13:11:49;0.73;;;0.50;;
41711;SDS011;27399;51.516;13.670;2023-04-24T13:14:15;1.73;;;0.82;;
41711;SDS011;27399;51.516;13.670;2023-04-24T13:16:41;0.57;;;0.50;;
41711;SDS011;27399;51.516;13.670;2023-04-24T13:19:06;3.63;;;0.77;;
41711;SDS011;27399;51.516;13.670;2023-04-24T13:21:32;1.17;;;0.50;;
41711;SDS011;27399;51.516;13.670;2023-04-24T13:23:57;3.15;;;0.57;;
41711;SDS011;27399;51.516;13.670;2023-04-24T13:26:24;2.80;;;0.70;;
41711;SDS011;27399;51.516;13.670;2023-04-24T13:28:50;1.23;;;0.47;;
41711;SDS011;27399;51.516;13.670;2023-04-24T13:31:15;1.90;;;0.55;;
41711;SDS011;27399;51.516;13.670;2023-04-24T13:33:44;3.95;;;0.73;;
41711;SDS011;27399;51.516;13.670;2023-04-24T13:36:09;0.60;;;0.60;;
41711;SDS011;27399;51.516;13.670;2023-04-24T13:38:35;1.95;;;0.60;;
41711;SDS011;27399;51.516;13.670;2023-04-24T13:41:01;0.90;;;0.60;;
41711;SDS011;27399;51.516;13.670;2023-04-24T13:43:26;2.33;;;0.75;;
41711;SDS011;27399;51.516;13.670;2023-04-24T13:45:52;2.92;;;0.65;;
41711;SDS011;27399;51.516;13.670;2023-04-24T13:48:17;2.63;;;0.47;;
41711;SDS011;27399;51.516;13.670;2023-04-24T13:50:43;4.15;;;0.95;;
41711;SDS011;27399;51.516;13.670;2023-04-24T13:53:09;6.70;;;0.70;;
41711;SDS011;27399;51.516;13.670;2023-04-24T13:55:35;3.22;;;0.77;;
41711;SDS011;27399;51.516;13.670;2023-04-24T13:58:01;0.88;;;0.70;;
41711;SDS011;27399;51.516;13.670;2023-04-24T14:00:27;1.27;;;0.52;;
41711;SDS011;27399;51.516;13.670;2023-04-24T14:02:53;2.58;;;0.70;;
41711;SDS011;27399;51.516;13.670;2023-04-24T14:05:19;0.82;;;0.60;;
41711;SDS011;27399;51.516;13.670;2023-04-24T14:07:46;4.10;;;0.47;;
41711;SDS011;27399;51.516;13.670;2023-04-24T14:10:12;1.73;;;0.93;;
41711;SDS011;27399;51.516;13.670;2023-04-24T14:12:37;1.50;;;0.73;;
41711;SDS011;27399;51.516;13.670;2023-04-24T14:15:03;3.10;;;0.70;;
41711;SDS011;27399;51.516;13.670;2023-04-24T14:17:30;1.17;;;0.63;;
41711;SDS011;27399;51.516;13.670;2023-04-24T14:19:56;2.55;;;0.70;;
41711;SDS011;27399;51.516;13.670;2023-04-24T14:22:22;0.98;;;0.70;;
41711;SDS011;27399;51.516;13.670;2023-04-24T14:24:48;0.95;;;0.77;;
41711;SDS011;27399;51.516;13.670;2023-04-24T14:27:13;2.53;;;0.80;;
41711;SDS011;27399;51.516;13.670;2023-04-24T14:29:39;2.58;;;0.70;;
41711;SDS011;27399;51.516;13.670;2023-04-24T14:32:04;2.85;;;0.60;;
41711;SDS011;27399;51.516;13.670;2023-04-24T14:34:30;3.65;;;0.60;;
41711;SDS011;27399;51.516;13.670;2023-04-24T14:36:56;2.67;;;0.60;;
41711;SDS011;27399;51.516;13.670;2023-04-24T14:39:21;0.60;;;0.60;;
41711;SDS011;27399;51.516;13.670;2023-04-24T14:41:47;4.25;;;0.60;;
41711;SDS011;27399;51.516;13.670;2023-04-24T14:44:12;3.10;;;0.80;;
41711;SDS011;27399;51.516;13.670;2023-04-24T14:46:38;3.05;;;0.70;;